sensor_id;sensor_type;location;lat;lon;timestamp;P1;durP1;ratioP1;P2;durP2;ratioP2
12597;SDS011;6364;53.590;9.956;2022-12-13T00:01:51;125.00;;;40.33;;
12597;SDS011;6364;53.590;9.956;2022-12-13T00:04:17;112.50;;;37.78;;
12597;SDS011;6364;53.590;9.956;2022-12-13T00:06:44;116.95;;;39.90;;
12597;SDS011;6364;53.590;9.956;2022-12-13T00:09:10;119.70;;;40.35;;
12597;SDS011;6364;53.590;9.956;2022-12-13T00:11:38;123.78;;;40.60;;
12597;SDS011;6364;53.590;9.956;2022-12-13T00:14:03;117.18;;;39.42;;
12597;SDS011;6364;53.590;9.956;2022-12-13T00:16:29;113.05;;;39.67;;
12597;SDS011;6364;53.590;9.956;2022-12-13T00:18:55;118.90;;;38.38;;
12597;SDS011;6364;53.590;9.956;2022-12-13T00:21:23;125.05;;;39.30;;
12597;SDS011;6364;53.590;9.956;2022-12-13T00:23:53;108.35;;;37.67;;
12597;SDS011;6364;53.590;9.956;2022-12-13T00:26:20;105.03;;;37.03;;
12597;SDS011;6364;53.590;9.956;2022-12-13T00:28:47;112.63;;;35.45;;
12597;SDS011;6364;53.590;9.956;2022-12-13T00:31:13;108.95;;;36.75;;
12597;SDS011;6364;53.590;9.956;2022-12-13T00:33:39;115.18;;;37.03;;
12597;SDS011;6364;53.590;9.956;2022-12-13T00:36:05;117.38;;;37.65;;
12597;SDS011;6364;53.590;9.956;2022-12-13T00:38:31;110.07;;;37.08;;
12597;SDS011;6364;53.590;9.956;2022-12-13T00:40:57;104.50;;;37.08;;
12597;SDS011;6364;53.590;9.956;2022-12-13T00:43:22;114.45;;;37.15;;
12597;SDS011;6364;53.590;9.956;2022-12-13T00:45:48;116.32;;;37.22;;
12597;SDS011;6364;53.590;9.956;2022-12-13T00:48:13;117.32;;;35.97;;
12597;SDS011;6364;53.590;9.956;2022-12-13T00:50:38;115.13;;;37.97;;
12597;SDS011;6364;53.590;9.956;2022-12-13T00:53:04;102.53;;;35.50;;
12597;SDS011;6364;53.590;9.956;2022-12-13T00:55:29;103.10;;;35.88;;
12597;SDS011;6364;53.590;9.956;2022-12-13T00:57:55;113.47;;;37.03;;
12597;SDS011;6364;53.590;9.956;2022-12-13T01:00:20;108.35;;;37.20;;
12597;SDS011;6364;53.590;9.956;2022-12-13T01:02:46;105.03;;;34.80;;
12597;SDS011;6364;53.590;9.956;2022-12-13T01:05:11;117.85;;;36.53;;
12597;SDS011;6364;53.590;9.956;2022-12-13T01:07:37;109.15;;;35.40;;
12597;SDS011;6364;53.590;9.956;2022-12-13T01:10:06;105.50;;;36.60;;
12597;SDS011;6364;53.590;9.956;2022-12-13T01:12:35;96.78;;;35.53;;
12597;SDS011;6364;53.590;9.956;2022-12-13T01:15:00;109.85;;;34.15;;
12597;SDS011;6364;53.590;9.956;2022-12-13T01:17:26;111.03;;;35.38;;
12597;SDS011;6364;53.590;9.956;2022-12-13T01:19:51;105.68;;;37.20;;
12597;SDS011;6364;53.590;9.956;2022-12-13T01:22:16;110.72;;;37.22;;
12597;SDS011;6364;53.590;9.956;2022-12-13T01:24:42;111.88;;;37.70;;
12597;SDS011;6364;53.590;9.956;2022-12-13T01:27:07;107.97;;;34.80;;
12597;SDS011;6364;53.590;9.956;2022-12-13T01:29:33;112.40;;;37.20;;
12597;SDS011;6364;53.590;9.956;2022-12-13T01:31:58;103.38;;;34.22;;
12597;SDS011;6364;53.590;9.956;2022-12-13T01:34:24;109.28;;;35.70;;
12597;SDS011;6364;53.590;9.956;2022-12-13T01:36:51;112.63;;;35.53;;
12597;SDS011;6364;53.590;9.956;2022-12-13T01:39:17;105.22;;;34.85;;
12597;SDS011;6364;53.590;9.956;2022-12-13T01:41:44;100.68;;;34.92;;
12597;SDS011;6364;53.590;9.956;2022-12-13T01:47:15;97.80;;;34.92;;
12597;SDS011;6364;53.590;9.956;2022-12-13T01:49:43;108.85;;;35.42;;
12597;SDS011;6364;53.590;9.956;2022-12-13T01:52:08;98.60;;;34.28;;
12597;SDS011;6364;53.590;9.956;2022-12-13T01:54:37;107.75;;;35.55;;
12597;SDS011;6364;53.590;9.956;2022-12-13T01:57:05;108.45;;;35.65;;
12597;SDS011;6364;53.590;9.956;2022-12-13T01:59:36;103.53;;;34.38;;
12597;SDS011;6364;53.590;9.956;2022-12-13T02:02:04;108.20;;;36.45;;
12597;SDS011;6364;53.590;9.956;2022-12-13T02:04:36;108.43;;;36.08;;
12597;SDS011;6364;53.590;9.956;2022-12-13T02:07:14;110.22;;;35.70;;
12597;SDS011;6364;53.590;9.956;2022-12-13T02:09:41;106.18;;;34.75;;
12597;SDS011;6364;53.590;9.956;2022-12-13T02:12:06;105.47;;;33.97;;
12597;SDS011;6364;53.590;9.956;2022-12-13T02:14:33;107.30;;;35.70;;
12597;SDS011;6364;53.590;9.956;2022-12-13T02:17:00;110.22;;;35.30;;
12597;SDS011;6364;53.590;9.956;2022-12-13T02:22:20;113.93;;;35.22;;
12597;SDS011;6364;53.590;9.956;2022-12-13T02:30:41;79.50;;;26.60;;
12597;SDS011;6364;53.590;9.956;2022-12-13T02:36:00;101.30;;;33.55;;
12597;SDS011;6364;53.590;9.956;2022-12-13T02:38:38;102.75;;;34.03;;
12597;SDS011;6364;53.590;9.956;2022-12-13T02:41:12;90.68;;;32.45;;
12597;SDS011;6364;53.590;9.956;2022-12-13T02:43:44;107.43;;;34.20;;
12597;SDS011;6364;53.590;9.956;2022-12-13T02:46:14;94.90;;;33.33;;
12597;SDS011;6364;53.590;9.956;2022-12-13T02:48:42;101.90;;;34.40;;
12597;SDS011;6364;53.590;9.956;2022-12-13T02:51:09;108.32;;;34.58;;
12597;SDS011;6364;53.590;9.956;2022-12-13T02:53:35;103.57;;;34.78;;
12597;SDS011;6364;53.590;9.956;2022-12-13T02:56:01;101.57;;;33.40;;
12597;SDS011;6364;53.590;9.956;2022-12-13T02:58:28;103.32;;;33.22;;
12597;SDS011;6364;53.590;9.956;2022-12-13T03:06:36;96.43;;;32.03;;
12597;SDS011;6364;53.590;9.956;2022-12-13T03:12:11;102.03;;;33.25;;
12597;SDS011;6364;53.590;9.956;2022-12-13T03:18:17;103.13;;;33.67;;
12597;SDS011;6364;53.590;9.956;2022-12-13T03:20:46;105.80;;;33.00;;
12597;SDS011;6364;53.590;9.956;2022-12-13T03:23:13;103.65;;;33.35;;
12597;SDS011;6364;53.590;9.956;2022-12-13T03:25:39;100.40;;;34.00;;
12597;SDS011;6364;53.590;9.956;2022-12-13T03:28:04;97.53;;;32.45;;
12597;SDS011;6364;53.590;9.956;2022-12-13T03:30:30;97.05;;;32.17;;
12597;SDS011;6364;53.590;9.956;2022-12-13T03:32:56;98.22;;;33.30;;
12597;SDS011;6364;53.590;9.956;2022-12-13T03:35:21;96.35;;;33.15;;
12597;SDS011;6364;53.590;9.956;2022-12-13T03:37:46;99.25;;;34.33;;
12597;SDS011;6364;53.590;9.956;2022-12-13T03:40:12;104.03;;;33.63;;
12597;SDS011;6364;53.590;9.956;2022-12-13T03:42:37;95.10;;;32.95;;
12597;SDS011;6364;53.590;9.956;2022-12-13T03:45:03;97.80;;;33.65;;
12597;SDS011;6364;53.590;9.956;2022-12-13T03:47:28;107.53;;;34.88;;
12597;SDS011;6364;53.590;9.956;2022-12-13T03:49:53;97.50;;;33.78;;
12597;SDS011;6364;53.590;9.956;2022-12-13T03:52:19;102.28;;;34.28;;
12597;SDS011;6364;53.590;9.956;2022-12-13T03:54:45;99.47;;;34.53;;
12597;SDS011;6364;53.590;9.956;2022-12-13T03:57:10;104.15;;;34.28;;
12597;SDS011;6364;53.590;9.956;2022-12-13T03:59:35;92.38;;;33.42;;
12597;SDS011;6364;53.590;9.956;2022-12-13T04:02:01;103.25;;;34.38;;
12597;SDS011;6364;53.590;9.956;2022-12-13T04:04:26;96.45;;;31.73;;
12597;SDS011;6364;53.590;9.956;2022-12-13T04:06:51;93.78;;;32.90;;
12597;SDS011;6364;53.590;9.956;2022-12-13T04:09:17;94.93;;;31.58;;
12597;SDS011;6364;53.590;9.956;2022-12-13T04:11:42;95.15;;;32.75;;
12597;SDS011;6364;53.590;9.956;2022-12-13T04:14:26;89.85;;;32.10;;
12597;SDS011;6364;53.590;9.956;2022-12-13T04:16:51;100.78;;;34.25;;
12597;SDS011;6364;53.590;9.956;2022-12-13T04:19:16;93.57;;;33.33;;
12597;SDS011;6364;53.590;9.956;2022-12-13T04:21:42;92.65;;;31.48;;
12597;SDS011;6364;53.590;9.956;2022-12-13T04:24:07;105.30;;;34.47;;
12597;SDS011;6364;53.590;9.956;2022-12-13T04:26:32;91.22;;;34.25;;
12597;SDS011;6364;53.590;9.956;2022-12-13T04:28:58;98.78;;;35.03;;
12597;SDS011;6364;53.590;9.956;2022-12-13T04:31:23;92.50;;;33.50;;
12597;SDS011;6364;53.590;9.956;2022-12-13T04:33:48;97.32;;;34.10;;
12597;SDS011;6364;53.590;9.956;2022-12-13T04:36:14;92.43;;;33.60;;
12597;SDS011;6364;53.590;9.956;2022-12-13T04:38:44;100.57;;;34.65;;
12597;SDS011;6364;53.590;9.956;2022-12-13T04:41:13;98.22;;;35.47;;
12597;SDS011;6364;53.590;9.956;2022-12-13T04:43:40;94.88;;;35.45;;
12597;SDS011;6364;53.590;9.956;2022-12-13T04:46:06;92.43;;;33.83;;
12597;SDS011;6364;53.590;9.956;2022-12-13T04:48:31;96.93;;;36.38;;
12597;SDS011;6364;53.590;9.956;2022-12-13T04:50:57;87.90;;;35.10;;
12597;SDS011;6364;53.590;9.956;2022-12-13T04:53:24;96.40;;;34.58;;
12597;SDS011;6364;53.590;9.956;2022-12-13T04:55:49;94.57;;;35.00;;
12597;SDS011;6364;53.590;9.956;2022-12-13T04:58:14;89.35;;;32.20;;
12597;SDS011;6364;53.590;9.956;2022-12-13T05:00:40;86.60;;;31.98;;
12597;SDS011;6364;53.590;9.956;2022-12-13T05:03:05;99.78;;;35.75;;
12597;SDS011;6364;53.590;9.956;2022-12-13T05:05:30;96.25;;;34.15;;
12597;SDS011;6364;53.590;9.956;2022-12-13T05:07:55;88.22;;;32.60;;
12597;SDS011;6364;53.590;9.956;2022-12-13T05:10:21;89.97;;;32.95;;
12597;SDS011;6364;53.590;9.956;2022-12-13T05:12:46;85.18;;;32.28;;
12597;SDS011;6364;53.590;9.956;2022-12-13T05:15:11;79.57;;;31.70;;
12597;SDS011;6364;53.590;9.956;2022-12-13T05:17:37;75.10;;;30.23;;
12597;SDS011;6364;53.590;9.956;2022-12-13T05:20:02;78.72;;;28.95;;
12597;SDS011;6364;53.590;9.956;2022-12-13T05:22:28;84.32;;;29.38;;
12597;SDS011;6364;53.590;9.956;2022-12-13T05:24:53;73.97;;;28.92;;
12597;SDS011;6364;53.590;9.956;2022-12-13T05:27:18;68.53;;;26.48;;
12597;SDS011;6364;53.590;9.956;2022-12-13T05:29:44;68.97;;;27.17;;
12597;SDS011;6364;53.590;9.956;2022-12-13T05:32:09;70.05;;;26.13;;
12597;SDS011;6364;53.590;9.956;2022-12-13T05:34:34;72.82;;;28.20;;
12597;SDS011;6364;53.590;9.956;2022-12-13T05:37:00;68.10;;;27.95;;
12597;SDS011;6364;53.590;9.956;2022-12-13T05:39:25;73.50;;;28.10;;
12597;SDS011;6364;53.590;9.956;2022-12-13T05:41:50;76.75;;;28.80;;
12597;SDS011;6364;53.590;9.956;2022-12-13T05:44:16;74.93;;;27.92;;
12597;SDS011;6364;53.590;9.956;2022-12-13T05:46:42;77.63;;;28.45;;
12597;SDS011;6364;53.590;9.956;2022-12-13T05:49:07;69.43;;;27.65;;
12597;SDS011;6364;53.590;9.956;2022-12-13T05:51:32;73.15;;;28.83;;
12597;SDS011;6364;53.590;9.956;2022-12-13T05:53:58;75.95;;;28.73;;
12597;SDS011;6364;53.590;9.956;2022-12-13T05:56:23;70.47;;;25.92;;
12597;SDS011;6364;53.590;9.956;2022-12-13T05:58:48;69.93;;;27.38;;
12597;SDS011;6364;53.590;9.956;2022-12-13T06:01:14;71.72;;;27.58;;
12597;SDS011;6364;53.590;9.956;2022-12-13T06:03:40;78.75;;;27.92;;
12597;SDS011;6364;53.590;9.956;2022-12-13T06:06:07;73.38;;;27.27;;
12597;SDS011;6364;53.590;9.956;2022-12-13T06:08:33;68.07;;;26.80;;
12597;SDS011;6364;53.590;9.956;2022-12-13T06:10:59;70.30;;;26.88;;
12597;SDS011;6364;53.590;9.956;2022-12-13T06:13:25;69.80;;;26.30;;
12597;SDS011;6364;53.590;9.956;2022-12-13T06:15:51;70.18;;;25.05;;
12597;SDS011;6364;53.590;9.956;2022-12-13T06:18:17;62.10;;;23.67;;
12597;SDS011;6364;53.590;9.956;2022-12-13T06:20:42;66.43;;;24.55;;
12597;SDS011;6364;53.590;9.956;2022-12-13T06:23:07;71.65;;;26.20;;
12597;SDS011;6364;53.590;9.956;2022-12-13T06:25:34;71.70;;;26.70;;
12597;SDS011;6364;53.590;9.956;2022-12-13T06:28:00;62.63;;;25.23;;
12597;SDS011;6364;53.590;9.956;2022-12-13T06:30:25;68.32;;;27.60;;
12597;SDS011;6364;53.590;9.956;2022-12-13T06:32:51;59.70;;;23.83;;
12597;SDS011;6364;53.590;9.956;2022-12-13T06:35:16;63.63;;;25.40;;
12597;SDS011;6364;53.590;9.956;2022-12-13T06:37:41;58.63;;;22.25;;
12597;SDS011;6364;53.590;9.956;2022-12-13T06:40:07;63.70;;;23.77;;
12597;SDS011;6364;53.590;9.956;2022-12-13T06:42:32;57.60;;;24.38;;
12597;SDS011;6364;53.590;9.956;2022-12-13T06:44:58;54.40;;;22.55;;
12597;SDS011;6364;53.590;9.956;2022-12-13T06:47:24;59.30;;;21.38;;
12597;SDS011;6364;53.590;9.956;2022-12-13T06:49:49;59.20;;;23.27;;
12597;SDS011;6364;53.590;9.956;2022-12-13T06:52:15;54.60;;;21.83;;
12597;SDS011;6364;53.590;9.956;2022-12-13T06:54:41;54.58;;;21.55;;
12597;SDS011;6364;53.590;9.956;2022-12-13T06:57:07;53.95;;;21.80;;
12597;SDS011;6364;53.590;9.956;2022-12-13T06:59:32;56.60;;;22.35;;
12597;SDS011;6364;53.590;9.956;2022-12-13T07:01:57;53.72;;;21.63;;
12597;SDS011;6364;53.590;9.956;2022-12-13T07:04:23;52.05;;;21.33;;
12597;SDS011;6364;53.590;9.956;2022-12-13T07:06:48;56.17;;;22.80;;
12597;SDS011;6364;53.590;9.956;2022-12-13T07:09:13;53.63;;;20.80;;
12597;SDS011;6364;53.590;9.956;2022-12-13T07:11:39;53.03;;;23.23;;
12597;SDS011;6364;53.590;9.956;2022-12-13T07:14:04;54.72;;;22.50;;
12597;SDS011;6364;53.590;9.956;2022-12-13T07:16:29;45.72;;;20.08;;
12597;SDS011;6364;53.590;9.956;2022-12-13T07:18:55;59.35;;;22.95;;
12597;SDS011;6364;53.590;9.956;2022-12-13T07:21:24;60.55;;;23.48;;
12597;SDS011;6364;53.590;9.956;2022-12-13T07:23:49;59.70;;;24.55;;
12597;SDS011;6364;53.590;9.956;2022-12-13T07:26:15;63.03;;;24.33;;
12597;SDS011;6364;53.590;9.956;2022-12-13T07:28:41;63.63;;;25.98;;
12597;SDS011;6364;53.590;9.956;2022-12-13T07:31:07;68.90;;;26.40;;
12597;SDS011;6364;53.590;9.956;2022-12-13T07:33:34;58.78;;;25.55;;
12597;SDS011;6364;53.590;9.956;2022-12-13T07:36:00;66.40;;;25.00;;
12597;SDS011;6364;53.590;9.956;2022-12-13T07:38:38;61.10;;;24.98;;
12597;SDS011;6364;53.590;9.956;2022-12-13T07:41:04;59.08;;;24.98;;
12597;SDS011;6364;53.590;9.956;2022-12-13T07:43:30;59.75;;;25.10;;
12597;SDS011;6364;53.590;9.956;2022-12-13T07:45:59;63.60;;;24.88;;
12597;SDS011;6364;53.590;9.956;2022-12-13T07:48:28;58.70;;;23.27;;
12597;SDS011;6364;53.590;9.956;2022-12-13T07:50:53;58.53;;;23.08;;
12597;SDS011;6364;53.590;9.956;2022-12-13T07:53:24;55.30;;;23.80;;
12597;SDS011;6364;53.590;9.956;2022-12-13T07:55:49;62.13;;;25.52;;
12597;SDS011;6364;53.590;9.956;2022-12-13T07:58:15;63.67;;;24.80;;
12597;SDS011;6364;53.590;9.956;2022-12-13T08:00:41;61.60;;;24.88;;
12597;SDS011;6364;53.590;9.956;2022-12-13T08:03:08;65.88;;;25.40;;
12597;SDS011;6364;53.590;9.956;2022-12-13T08:05:34;60.50;;;24.38;;
12597;SDS011;6364;53.590;9.956;2022-12-13T08:08:00;56.60;;;22.92;;
12597;SDS011;6364;53.590;9.956;2022-12-13T08:10:26;61.50;;;24.48;;
12597;SDS011;6364;53.590;9.956;2022-12-13T08:12:52;64.32;;;24.45;;
12597;SDS011;6364;53.590;9.956;2022-12-13T08:15:17;62.17;;;24.42;;
12597;SDS011;6364;53.590;9.956;2022-12-13T08:17:43;62.15;;;23.00;;
12597;SDS011;6364;53.590;9.956;2022-12-13T08:20:08;51.95;;;22.23;;
12597;SDS011;6364;53.590;9.956;2022-12-13T08:22:33;64.05;;;23.80;;
12597;SDS011;6364;53.590;9.956;2022-12-13T08:24:59;58.80;;;23.15;;
12597;SDS011;6364;53.590;9.956;2022-12-13T08:27:24;57.92;;;22.85;;
12597;SDS011;6364;53.590;9.956;2022-12-13T08:29:49;51.47;;;21.85;;
12597;SDS011;6364;53.590;9.956;2022-12-13T08:32:15;52.75;;;22.52;;
12597;SDS011;6364;53.590;9.956;2022-12-13T08:34:40;53.92;;;21.85;;
12597;SDS011;6364;53.590;9.956;2022-12-13T08:37:06;50.83;;;22.85;;
12597;SDS011;6364;53.590;9.956;2022-12-13T08:39:32;50.92;;;22.30;;
12597;SDS011;6364;53.590;9.956;2022-12-13T08:42:09;56.42;;;23.38;;
12597;SDS011;6364;53.590;9.956;2022-12-13T08:44:42;59.25;;;23.25;;
12597;SDS011;6364;53.590;9.956;2022-12-13T08:47:07;56.33;;;22.65;;
12597;SDS011;6364;53.590;9.956;2022-12-13T08:49:33;55.63;;;22.50;;
12597;SDS011;6364;53.590;9.956;2022-12-13T08:51:58;55.63;;;23.25;;
12597;SDS011;6364;53.590;9.956;2022-12-13T08:54:24;60.78;;;22.27;;
12597;SDS011;6364;53.590;9.956;2022-12-13T08:56:49;50.97;;;23.42;;
12597;SDS011;6364;53.590;9.956;2022-12-13T08:59:15;59.35;;;24.02;;
12597;SDS011;6364;53.590;9.956;2022-12-13T09:01:40;50.40;;;22.17;;
12597;SDS011;6364;53.590;9.956;2022-12-13T09:04:05;56.35;;;22.20;;
12597;SDS011;6364;53.590;9.956;2022-12-13T09:06:31;54.42;;;22.40;;
12597;SDS011;6364;53.590;9.956;2022-12-13T09:08:56;52.25;;;22.15;;
12597;SDS011;6364;53.590;9.956;2022-12-13T09:11:21;54.67;;;22.20;;
12597;SDS011;6364;53.590;9.956;2022-12-13T09:13:47;53.20;;;22.95;;
12597;SDS011;6364;53.590;9.956;2022-12-13T09:16:13;59.35;;;23.35;;
12597;SDS011;6364;53.590;9.956;2022-12-13T09:18:43;48.58;;;21.50;;
12597;SDS011;6364;53.590;9.956;2022-12-13T09:21:10;47.17;;;22.17;;
12597;SDS011;6364;53.590;9.956;2022-12-13T09:23:37;47.55;;;21.15;;
12597;SDS011;6364;53.590;9.956;2022-12-13T09:26:05;45.83;;;21.23;;
12597;SDS011;6364;53.590;9.956;2022-12-13T09:28:31;50.63;;;21.40;;
12597;SDS011;6364;53.590;9.956;2022-12-13T09:30:56;47.80;;;20.67;;
12597;SDS011;6364;53.590;9.956;2022-12-13T09:33:22;46.65;;;21.00;;
12597;SDS011;6364;53.590;9.956;2022-12-13T09:35:47;46.88;;;21.25;;
12597;SDS011;6364;53.590;9.956;2022-12-13T09:38:12;45.47;;;20.75;;
12597;SDS011;6364;53.590;9.956;2022-12-13T09:40:38;41.17;;;19.85;;
12597;SDS011;6364;53.590;9.956;2022-12-13T09:43:05;43.05;;;19.83;;
12597;SDS011;6364;53.590;9.956;2022-12-13T09:45:30;44.45;;;21.17;;
12597;SDS011;6364;53.590;9.956;2022-12-13T09:47:57;43.10;;;20.95;;
12597;SDS011;6364;53.590;9.956;2022-12-13T09:50:30;47.40;;;19.67;;
12597;SDS011;6364;53.590;9.956;2022-12-13T09:52:56;47.88;;;19.98;;
12597;SDS011;6364;53.590;9.956;2022-12-13T09:55:27;46.72;;;19.48;;
12597;SDS011;6364;53.590;9.956;2022-12-13T09:57:56;35.97;;;16.00;;
12597;SDS011;6364;53.590;9.956;2022-12-13T10:00:23;40.40;;;19.13;;
12597;SDS011;6364;53.590;9.956;2022-12-13T10:02:53;41.25;;;17.90;;
12597;SDS011;6364;53.590;9.956;2022-12-13T10:08:06;37.13;;;17.58;;
12597;SDS011;6364;53.590;9.956;2022-12-13T10:10:35;39.70;;;18.65;;
12597;SDS011;6364;53.590;9.956;2022-12-13T10:16:05;40.92;;;18.45;;
12597;SDS011;6364;53.590;9.956;2022-12-13T10:18:35;43.47;;;17.83;;
12597;SDS011;6364;53.590;9.956;2022-12-13T10:21:02;38.15;;;17.77;;
12597;SDS011;6364;53.590;9.956;2022-12-13T10:23:29;44.28;;;18.58;;
12597;SDS011;6364;53.590;9.956;2022-12-13T10:25:54;35.55;;;16.63;;
12597;SDS011;6364;53.590;9.956;2022-12-13T10:28:27;43.47;;;18.90;;
12597;SDS011;6364;53.590;9.956;2022-12-13T10:30:54;34.60;;;17.80;;
12597;SDS011;6364;53.590;9.956;2022-12-13T10:33:21;39.42;;;17.98;;
12597;SDS011;6364;53.590;9.956;2022-12-13T10:36:00;38.40;;;17.65;;
12597;SDS011;6364;53.590;9.956;2022-12-13T10:38:26;37.55;;;17.73;;
12597;SDS011;6364;53.590;9.956;2022-12-13T10:40:54;39.80;;;17.73;;
12597;SDS011;6364;53.590;9.956;2022-12-13T10:43:22;36.78;;;17.35;;
12597;SDS011;6364;53.590;9.956;2022-12-13T10:48:20;40.38;;;18.77;;
12597;SDS011;6364;53.590;9.956;2022-12-13T10:53:30;38.83;;;17.05;;
12597;SDS011;6364;53.590;9.956;2022-12-13T10:55:56;35.58;;;17.30;;
12597;SDS011;6364;53.590;9.956;2022-12-13T10:58:23;35.47;;;16.17;;
12597;SDS011;6364;53.590;9.956;2022-12-13T11:01:06;33.67;;;16.70;;
12597;SDS011;6364;53.590;9.956;2022-12-13T11:03:33;31.20;;;15.77;;
12597;SDS011;6364;53.590;9.956;2022-12-13T11:06:05;32.00;;;16.15;;
12597;SDS011;6364;53.590;9.956;2022-12-13T11:08:37;36.85;;;16.23;;
12597;SDS011;6364;53.590;9.956;2022-12-13T11:11:03;37.22;;;15.88;;
12597;SDS011;6364;53.590;9.956;2022-12-13T11:18:46;33.80;;;16.38;;
12597;SDS011;6364;53.590;9.956;2022-12-13T11:21:15;30.85;;;14.35;;
12597;SDS011;6364;53.590;9.956;2022-12-13T11:23:47;35.53;;;16.17;;
12597;SDS011;6364;53.590;9.956;2022-12-13T11:26:14;31.13;;;15.55;;
12597;SDS011;6364;53.590;9.956;2022-12-13T11:28:51;31.75;;;15.35;;
12597;SDS011;6364;53.590;9.956;2022-12-13T11:34:48;35.53;;;16.10;;
12597;SDS011;6364;53.590;9.956;2022-12-13T11:40:08;33.97;;;16.13;;
12597;SDS011;6364;53.590;9.956;2022-12-13T11:42:47;33.38;;;15.88;;
12597;SDS011;6364;53.590;9.956;2022-12-13T11:50:22;33.60;;;15.77;;
12597;SDS011;6364;53.590;9.956;2022-12-13T11:52:53;40.75;;;16.17;;
12597;SDS011;6364;53.590;9.956;2022-12-13T11:55:26;32.70;;;16.40;;
12597;SDS011;6364;53.590;9.956;2022-12-13T11:58:06;33.53;;;16.85;;
12597;SDS011;6364;53.590;9.956;2022-12-13T12:00:43;32.70;;;16.55;;
12597;SDS011;6364;53.590;9.956;2022-12-13T12:05:50;34.92;;;17.23;;
12597;SDS011;6364;53.590;9.956;2022-12-13T12:11:12;33.97;;;15.75;;
12597;SDS011;6364;53.590;9.956;2022-12-13T12:13:42;38.13;;;17.52;;
12597;SDS011;6364;53.590;9.956;2022-12-13T12:18:36;35.45;;;16.10;;
12597;SDS011;6364;53.590;9.956;2022-12-13T12:21:04;32.70;;;15.95;;
12597;SDS011;6364;53.590;9.956;2022-12-13T12:26:09;33.88;;;16.42;;
12597;SDS011;6364;53.590;9.956;2022-12-13T12:31:31;34.00;;;15.27;;
12597;SDS011;6364;53.590;9.956;2022-12-13T12:34:19;35.83;;;17.00;;
12597;SDS011;6364;53.590;9.956;2022-12-13T12:36:56;33.63;;;15.50;;
12597;SDS011;6364;53.590;9.956;2022-12-13T12:50:18;33.90;;;15.45;;
12597;SDS011;6364;53.590;9.956;2022-12-13T12:52:54;33.60;;;15.90;;
12597;SDS011;6364;53.590;9.956;2022-12-13T13:04:08;33.28;;;16.33;;
12597;SDS011;6364;53.590;9.956;2022-12-13T13:06:37;34.30;;;16.80;;
12597;SDS011;6364;53.590;9.956;2022-12-13T13:09:10;36.72;;;17.85;;
12597;SDS011;6364;53.590;9.956;2022-12-13T13:11:37;37.80;;;17.10;;
12597;SDS011;6364;53.590;9.956;2022-12-13T13:16:51;36.53;;;18.00;;
12597;SDS011;6364;53.590;9.956;2022-12-13T13:24:21;38.75;;;18.17;;
12597;SDS011;6364;53.590;9.956;2022-12-13T13:26:56;36.90;;;17.75;;
12597;SDS011;6364;53.590;9.956;2022-12-13T13:29:35;36.03;;;17.15;;
12597;SDS011;6364;53.590;9.956;2022-12-13T13:34:39;36.60;;;18.52;;
12597;SDS011;6364;53.590;9.956;2022-12-13T13:42:18;36.60;;;18.08;;
12597;SDS011;6364;53.590;9.956;2022-12-13T14:01:37;44.92;;;22.33;;
12597;SDS011;6364;53.590;9.956;2022-12-13T14:18:15;48.45;;;23.35;;
12597;SDS011;6364;53.590;9.956;2022-12-13T14:26:29;54.10;;;25.13;;
12597;SDS011;6364;53.590;9.956;2022-12-13T14:28:58;40.47;;;20.67;;
12597;SDS011;6364;53.590;9.956;2022-12-13T14:31:38;50.65;;;24.40;;
12597;SDS011;6364;53.590;9.956;2022-12-13T14:34:05;50.42;;;23.27;;
12597;SDS011;6364;53.590;9.956;2022-12-13T14:36:32;50.53;;;24.25;;
12597;SDS011;6364;53.590;9.956;2022-12-13T14:39:04;52.90;;;24.10;;
12597;SDS011;6364;53.590;9.956;2022-12-13T14:41:31;50.97;;;24.73;;
12597;SDS011;6364;53.590;9.956;2022-12-13T14:44:12;50.35;;;24.08;;
12597;SDS011;6364;53.590;9.956;2022-12-13T14:46:51;50.97;;;25.05;;
12597;SDS011;6364;53.590;9.956;2022-12-13T14:49:40;53.33;;;24.15;;
12597;SDS011;6364;53.590;9.956;2022-12-13T14:52:17;54.88;;;24.48;;
12597;SDS011;6364;53.590;9.956;2022-12-13T14:54:46;48.95;;;24.75;;
12597;SDS011;6364;53.590;9.956;2022-12-13T14:57:17;57.03;;;25.88;;
12597;SDS011;6364;53.590;9.956;2022-12-13T14:59:45;56.33;;;25.75;;
12597;SDS011;6364;53.590;9.956;2022-12-13T15:02:13;58.50;;;27.55;;
12597;SDS011;6364;53.590;9.956;2022-12-13T15:04:41;61.90;;;27.25;;
12597;SDS011;6364;53.590;9.956;2022-12-13T15:09:42;56.53;;;25.33;;
12597;SDS011;6364;53.590;9.956;2022-12-13T15:12:09;56.05;;;26.13;;
12597;SDS011;6364;53.590;9.956;2022-12-13T15:14:36;61.45;;;27.40;;
12597;SDS011;6364;53.590;9.956;2022-12-13T15:17:02;56.67;;;25.27;;
12597;SDS011;6364;53.590;9.956;2022-12-13T15:19:27;57.45;;;27.50;;
12597;SDS011;6364;53.590;9.956;2022-12-13T15:22:03;58.47;;;27.83;;
12597;SDS011;6364;53.590;9.956;2022-12-13T15:24:32;61.35;;;27.55;;
12597;SDS011;6364;53.590;9.956;2022-12-13T15:26:58;60.47;;;27.70;;
12597;SDS011;6364;53.590;9.956;2022-12-13T15:29:25;61.97;;;27.27;;
12597;SDS011;6364;53.590;9.956;2022-12-13T15:31:53;63.50;;;28.40;;
12597;SDS011;6364;53.590;9.956;2022-12-13T15:36:47;69.82;;;29.65;;
12597;SDS011;6364;53.590;9.956;2022-12-13T15:39:13;66.88;;;30.55;;
12597;SDS011;6364;53.590;9.956;2022-12-13T15:41:43;66.80;;;28.80;;
12597;SDS011;6364;53.590;9.956;2022-12-13T15:44:43;65.18;;;29.60;;
12597;SDS011;6364;53.590;9.956;2022-12-13T15:47:12;66.88;;;29.73;;
12597;SDS011;6364;53.590;9.956;2022-12-13T15:50:00;71.60;;;30.65;;
12597;SDS011;6364;53.590;9.956;2022-12-13T15:52:32;64.88;;;30.38;;
12597;SDS011;6364;53.590;9.956;2022-12-13T15:57:30;77.90;;;33.08;;
12597;SDS011;6364;53.590;9.956;2022-12-13T16:02:52;73.03;;;32.25;;
12597;SDS011;6364;53.590;9.956;2022-12-13T16:05:29;73.53;;;33.05;;
12597;SDS011;6364;53.590;9.956;2022-12-13T16:07:57;77.82;;;31.98;;
12597;SDS011;6364;53.590;9.956;2022-12-13T16:10:24;75.20;;;32.88;;
12597;SDS011;6364;53.590;9.956;2022-12-13T16:12:51;78.55;;;33.38;;
12597;SDS011;6364;53.590;9.956;2022-12-13T16:15:25;82.63;;;34.10;;
12597;SDS011;6364;53.590;9.956;2022-12-13T16:17:55;82.30;;;34.67;;
12597;SDS011;6364;53.590;9.956;2022-12-13T16:20:30;73.13;;;32.00;;
12597;SDS011;6364;53.590;9.956;2022-12-13T16:22:55;79.22;;;32.97;;
12597;SDS011;6364;53.590;9.956;2022-12-13T16:25:21;74.22;;;32.53;;
12597;SDS011;6364;53.590;9.956;2022-12-13T16:27:47;83.75;;;33.90;;
12597;SDS011;6364;53.590;9.956;2022-12-13T16:30:51;77.95;;;33.75;;
12597;SDS011;6364;53.590;9.956;2022-12-13T16:33:16;82.57;;;33.10;;
12597;SDS011;6364;53.590;9.956;2022-12-13T16:35:41;82.03;;;36.05;;
12597;SDS011;6364;53.590;9.956;2022-12-13T16:38:10;80.35;;;33.55;;
12597;SDS011;6364;53.590;9.956;2022-12-13T16:40:36;90.35;;;35.13;;
12597;SDS011;6364;53.590;9.956;2022-12-13T16:43:03;82.55;;;34.05;;
12597;SDS011;6364;53.590;9.956;2022-12-13T16:45:30;85.45;;;37.33;;
12597;SDS011;6364;53.590;9.956;2022-12-13T16:48:01;81.07;;;34.17;;
12597;SDS011;6364;53.590;9.956;2022-12-13T16:50:29;82.45;;;31.35;;
12597;SDS011;6364;53.590;9.956;2022-12-13T16:52:54;91.63;;;33.40;;
12597;SDS011;6364;53.590;9.956;2022-12-13T16:55:19;96.88;;;36.25;;
12597;SDS011;6364;53.590;9.956;2022-12-13T16:57:55;91.45;;;35.47;;
12597;SDS011;6364;53.590;9.956;2022-12-13T17:00:24;94.00;;;36.40;;
12597;SDS011;6364;53.590;9.956;2022-12-13T17:02:51;94.05;;;33.70;;
12597;SDS011;6364;53.590;9.956;2022-12-13T17:05:17;99.78;;;36.28;;